sensor_id;sensor_type;location;lat;lon;timestamp;pressure;altitude;pressure_sealevel;temperature;humidity
23176;BME280;19910;42.652;23.332;2022-11-20T00:01:09;93906.81;;;17.05;67.23
23176;BME280;19910;42.652;23.332;2022-11-20T00:03:36;93914.22;;;17.01;64.58
23176;BME280;19910;42.652;23.332;2022-11-20T00:06:05;93910.25;;;16.88;66.13
23176;BME280;19910;42.652;23.332;2022-11-20T00:08:32;93954.69;;;16.64;68.96
23176;BME280;19910;42.652;23.332;2022-11-20T00:11:02;93912.47;;;16.03;71.49
23176;BME280;19910;42.652;23.332;2022-11-20T00:13:29;93922.69;;;16.13;70.57
23176;BME280;19910;42.652;23.332;2022-11-20T00:15:57;93900.69;;;16.57;67.06
23176;BME280;19910;42.652;23.332;2022-11-20T00:18:26;93908.72;;;17.01;65.46
23176;BME280;19910;42.652;23.332;2022-11-20T00:20:53;93894.78;;;17.49;63.29
23176;BME280;19910;42.652;23.332;2022-11-20T00:23:20;93881.47;;;17.44;63.34
23176;BME280;19910;42.652;23.332;2022-11-20T00:25:46;93889.34;;;17.77;62.04
23176;BME280;19910;42.652;23.332;2022-11-20T00:28:13;93881.53;;;17.90;61.44
23176;BME280;19910;42.652;23.332;2022-11-20T00:30:40;93867.41;;;18.06;60.66
23176;BME280;19910;42.652;23.332;2022-11-20T00:33:07;93869.75;;;18.07;60.74
23176;BME280;19910;42.652;23.332;2022-11-20T00:35:35;93865.84;;;18.16;59.73
23176;BME280;19910;42.652;23.332;2022-11-20T00:38:01;93871.31;;;18.26;59.44
23176;BME280;19910;42.652;23.332;2022-11-20T00:40:28;93886.97;;;18.29;58.79
23176;BME280;19910;42.652;23.332;2022-11-20T00:42:55;93884.19;;;18.33;58.64
23176;BME280;19910;42.652;23.332;2022-11-20T00:45:22;93890.88;;;18.35;58.37
23176;BME280;19910;42.652;23.332;2022-11-20T00:47:49;93895.97;;;18.40;57.72
23176;BME280;19910;42.652;23.332;2022-11-20T00:50:16;93890.09;;;18.42;57.38
23176;BME280;19910;42.652;23.332;2022-11-20T00:52:44;93890.88;;;18.42;57.50
23176;BME280;19910;42.652;23.332;2022-11-20T00:55:10;93904.94;;;18.52;56.72
23176;BME280;19910;42.652;23.332;2022-11-20T00:57:37;93897.88;;;18.61;56.30
23176;BME280;19910;42.652;23.332;2022-11-20T01:00:05;93880.22;;;18.73;56.04
23176;BME280;19910;42.652;23.332;2022-11-20T01:02:32;93886.88;;;18.79;55.80
23176;BME280;19910;42.652;23.332;2022-11-20T01:04:59;93877.44;;;18.80;55.45
23176;BME280;19910;42.652;23.332;2022-11-20T01:07:26;93908.06;;;18.68;55.93
23176;BME280;19910;42.652;23.332;2022-11-20T01:09:54;93872.81;;;18.63;56.22
23176;BME280;19910;42.652;23.332;2022-11-20T01:12:20;93877.50;;;18.55;56.71
23176;BME280;19910;42.652;23.332;2022-11-20T01:14:47;93869.28;;;18.52;57.01
23176;BME280;19910;42.652;23.332;2022-11-20T01:17:14;93865.78;;;18.37;57.53
23176;BME280;19910;42.652;23.332;2022-11-20T01:19:41;93856.34;;;18.63;56.00
23176;BME280;19910;42.652;23.332;2022-11-20T01:22:07;93858.69;;;18.64;56.25
23176;BME280;19910;42.652;23.332;2022-11-20T01:24:34;93839.88;;;18.59;56.37
23176;BME280;19910;42.652;23.332;2022-11-20T01:27:02;93862.63;;;18.53;56.46
23176;BME280;19910;42.652;23.332;2022-11-20T01:29:29;93859.47;;;18.65;56.29
23176;BME280;19910;42.652;23.332;2022-11-20T01:31:56;93845.38;;;18.56;56.83
23176;BME280;19910;42.652;23.332;2022-11-20T01:34:23;93835.97;;;18.50;57.04
23176;BME280;19910;42.652;23.332;2022-11-20T01:36:52;93834.06;;;18.39;57.60
23176;BME280;19910;42.652;23.332;2022-11-20T01:39:20;93850.13;;;18.37;57.40
23176;BME280;19910;42.652;23.332;2022-11-20T01:41:48;93857.59;;;18.26;57.97
23176;BME280;19910;42.652;23.332;2022-11-20T01:44:51;93825.06;;;18.35;56.93
23176;BME280;19910;42.652;23.332;2022-11-20T01:47:22;93819.56;;;18.42;56.54
23176;BME280;19910;42.652;23.332;2022-11-20T01:49:53;93814.09;;;18.35;57.06
23176;BME280;19910;42.652;23.332;2022-11-20T01:52:23;93829.75;;;18.31;57.01
23176;BME280;19910;42.652;23.332;2022-11-20T01:54:54;93836.06;;;18.28;57.23
23176;BME280;19910;42.652;23.332;2022-11-20T01:57:23;93841.84;;;18.52;55.71
23176;BME280;19910;42.652;23.332;2022-11-20T01:59:57;93833.63;;;18.52;55.79
23176;BME280;19910;42.652;23.332;2022-11-20T02:02:26;93829.75;;;18.38;56.96
23176;BME280;19910;42.652;23.332;2022-11-20T02:04:55;93852.47;;;18.42;56.55
23176;BME280;19910;42.652;23.332;2022-11-20T02:07:23;93837.63;;;18.29;56.91
23176;BME280;19910;42.652;23.332;2022-11-20T02:09:51;93842.31;;;18.18;57.31
23176;BME280;19910;42.652;23.332;2022-11-20T02:12:18;93852.53;;;18.07;57.92
23176;BME280;19910;42.652;23.332;2022-11-20T02:15:00;93852.13;;;18.26;56.64
23176;BME280;19910;42.652;23.332;2022-11-20T02:17:27;93849.75;;;18.21;56.95
23176;BME280;19910;42.652;23.332;2022-11-20T02:19:54;93848.63;;;18.08;57.39
23176;BME280;19910;42.652;23.332;2022-11-20T02:22:26;93865.84;;;18.12;57.57
23176;BME280;19910;42.652;23.332;2022-11-20T02:24:58;93858.81;;;18.04;57.63
23176;BME280;19910;42.652;23.332;2022-11-20T02:27:26;93856.44;;;18.17;57.23
23176;BME280;19910;42.652;23.332;2022-11-20T02:29:57;93833.72;;;18.23;57.08
23176;BME280;19910;42.652;23.332;2022-11-20T02:32:27;93837.63;;;18.19;57.45
23176;BME280;19910;42.652;23.332;2022-11-20T02:34:54;93840.75;;;18.24;56.95
23176;BME280;19910;42.652;23.332;2022-11-20T02:37:22;93866.22;;;18.28;56.84
23176;BME280;19910;42.652;23.332;2022-11-20T02:39:51;93862.28;;;18.19;57.53
23176;BME280;19910;42.652;23.332;2022-11-20T02:42:19;93834.53;;;18.09;58.27
23176;BME280;19910;42.652;23.332;2022-11-20T02:44:47;93858.38;;;18.23;58.11
23176;BME280;19910;42.652;23.332;2022-11-20T02:47:14;93876.00;;;18.26;58.32
23176;BME280;19910;42.652;23.332;2022-11-20T02:49:41;93854.09;;;18.15;58.81
23176;BME280;19910;42.652;23.332;2022-11-20T02:52:07;93874.47;;;18.07;59.33
23176;BME280;19910;42.652;23.332;2022-11-20T02:54:34;93885.41;;;18.07;59.55
23176;BME280;19910;42.652;23.332;2022-11-20T02:57:01;93875.25;;;18.00;60.03
23176;BME280;19910;42.652;23.332;2022-11-20T02:59:29;93874.47;;;18.00;60.41
23176;BME280;19910;42.652;23.332;2022-11-20T03:01:56;93869.78;;;18.00;60.53
23176;BME280;19910;42.652;23.332;2022-11-20T03:04:23;93871.31;;;18.05;60.26
23176;BME280;19910;42.652;23.332;2022-11-20T03:06:50;93888.56;;;18.02;60.53
23176;BME280;19910;42.652;23.332;2022-11-20T03:09:16;93875.66;;;18.02;60.54
23176;BME280;19910;42.652;23.332;2022-11-20T03:11:43;93861.16;;;17.98;60.69
23176;BME280;19910;42.652;23.332;2022-11-20T03:14:10;93869.00;;;18.00;60.53
23176;BME280;19910;42.652;23.332;2022-11-20T03:16:38;93868.22;;;17.89;61.03
23176;BME280;19910;42.652;23.332;2022-11-20T03:19:05;93863.13;;;17.80;61.34
23176;BME280;19910;42.652;23.332;2022-11-20T03:21:33;93870.56;;;17.80;60.71
23176;BME280;19910;42.652;23.332;2022-11-20T03:24:00;93889.34;;;17.92;60.48
23176;BME280;19910;42.652;23.332;2022-11-20T03:26:27;93853.31;;;17.97;59.99
23176;BME280;19910;42.652;23.332;2022-11-20T03:28:56;93870.56;;;17.97;60.10
23176;BME280;19910;42.652;23.332;2022-11-20T03:31:24;93868.22;;;17.96;60.44
23176;BME280;19910;42.652;23.332;2022-11-20T03:33:53;93877.63;;;18.02;60.36
23176;BME280;19910;42.652;23.332;2022-11-20T03:36:21;93895.59;;;17.92;60.60
23176;BME280;19910;42.652;23.332;2022-11-20T03:38:48;93885.03;;;17.84;61.36
23176;BME280;19910;42.652;23.332;2022-11-20T03:41:16;93892.88;;;17.92;60.76
23176;BME280;19910;42.652;23.332;2022-11-20T03:43:47;93903.44;;;18.01;60.31
23176;BME280;19910;42.652;23.332;2022-11-20T03:46:14;93894.81;;;17.95;60.53
23176;BME280;19910;42.652;23.332;2022-11-20T03:48:41;93897.19;;;17.83;61.18
23176;BME280;19910;42.652;23.332;2022-11-20T03:51:11;93899.53;;;17.84;60.77
23176;BME280;19910;42.652;23.332;2022-11-20T03:53:38;93884.66;;;17.85;60.52
23176;BME280;19910;42.652;23.332;2022-11-20T03:56:07;93894.44;;;17.90;60.63
23176;BME280;19910;42.652;23.332;2022-11-20T03:58:34;93919.09;;;17.75;61.37
23176;BME280;19910;42.652;23.332;2022-11-20T04:01:06;93873.28;;;17.80;60.63
23176;BME280;19910;42.652;23.332;2022-11-20T04:03:33;93892.09;;;17.85;60.55
23176;BME280;19910;42.652;23.332;2022-11-20T04:06:02;93897.56;;;17.85;60.81
23176;BME280;19910;42.652;23.332;2022-11-20T04:08:31;93906.97;;;17.84;60.51
23176;BME280;19910;42.652;23.332;2022-11-20T04:11:08;93896.38;;;17.79;60.38
23176;BME280;19910;42.652;23.332;2022-11-20T04:13:35;93906.97;;;17.77;60.37
23176;BME280;19910;42.652;23.332;2022-11-20T04:16:03;93898.75;;;17.77;60.64
23176;BME280;19910;42.652;23.332;2022-11-20T04:18:30;93903.44;;;17.72;61.03
23176;BME280;19910;42.652;23.332;2022-11-20T04:20:57;93904.25;;;17.77;60.09
23176;BME280;19910;42.652;23.332;2022-11-20T04:23:24;93906.97;;;17.73;60.23
23176;BME280;19910;42.652;23.332;2022-11-20T04:25:52;93923.41;;;17.80;60.53
23176;BME280;19910;42.652;23.332;2022-11-20T04:28:19;93910.88;;;17.68;60.92
23176;BME280;19910;42.652;23.332;2022-11-20T04:30:46;93928.47;;;17.67;60.95
23176;BME280;19910;42.652;23.332;2022-11-20T04:33:12;93928.06;;;17.65;61.30
23176;BME280;19910;42.652;23.332;2022-11-20T04:35:39;93907.31;;;17.57;61.80
23176;BME280;19910;42.652;23.332;2022-11-20T04:38:06;93921.38;;;17.52;62.53
23176;BME280;19910;42.652;23.332;2022-11-20T04:40:33;93902.19;;;17.52;62.49
23176;BME280;19910;42.652;23.332;2022-11-20T04:43:01;93919.81;;;17.44;62.71
23176;BME280;19910;42.652;23.332;2022-11-20T04:45:28;93935.44;;;17.40;63.03
23176;BME280;19910;42.652;23.332;2022-11-20T04:47:54;93924.50;;;17.47;62.52
23176;BME280;19910;42.652;23.332;2022-11-20T04:50:21;93919.81;;;17.44;62.35
23176;BME280;19910;42.652;23.332;2022-11-20T04:52:48;93910.41;;;17.41;62.62
23176;BME280;19910;42.652;23.332;2022-11-20T04:55:14;93918.63;;;17.45;62.21
23176;BME280;19910;42.652;23.332;2022-11-20T04:57:41;93915.09;;;17.41;62.76
23176;BME280;19910;42.652;23.332;2022-11-20T05:00:11;93908.06;;;17.33;62.93
23176;BME280;19910;42.652;23.332;2022-11-20T05:02:38;93901.78;;;17.39;62.41
23176;BME280;19910;42.652;23.332;2022-11-20T05:05:05;93884.59;;;17.35;62.40
23176;BME280;19910;42.652;23.332;2022-11-20T05:07:31;93932.28;;;17.38;62.28
23176;BME280;19910;42.652;23.332;2022-11-20T05:09:58;93900.22;;;17.31;62.80
23176;BME280;19910;42.652;23.332;2022-11-20T05:12:25;93900.97;;;17.25;63.05
23176;BME280;19910;42.652;23.332;2022-11-20T05:14:52;93897.06;;;17.26;62.97
23176;BME280;19910;42.652;23.332;2022-11-20T05:17:20;93883.78;;;17.24;62.85
23176;BME280;19910;42.652;23.332;2022-11-20T05:19:47;93889.25;;;17.28;62.99
23176;BME280;19910;42.652;23.332;2022-11-20T05:22:14;93886.91;;;17.30;63.05
23176;BME280;19910;42.652;23.332;2022-11-20T05:24:40;93874.41;;;17.22;63.58
23176;BME280;19910;42.652;23.332;2022-11-20T05:27:07;93877.13;;;17.22;63.87
23176;BME280;19910;42.652;23.332;2022-11-20T05:29:34;93867.34;;;17.28;63.66
23176;BME280;19910;42.652;23.332;2022-11-20T05:32:01;93852.50;;;17.18;64.08
23176;BME280;19910;42.652;23.332;2022-11-20T05:34:29;93847.78;;;17.12;64.12
23176;BME280;19910;42.652;23.332;2022-11-20T05:36:55;93857.56;;;17.16;64.10
23176;BME280;19910;42.652;23.332;2022-11-20T05:39:22;93864.63;;;17.21;63.96
23176;BME280;19910;42.652;23.332;2022-11-20T05:41:49;93872.81;;;17.24;63.74
23176;BME280;19910;42.652;23.332;2022-11-20T05:44:35;93856.41;;;17.21;63.41
23176;BME280;19910;42.652;23.332;2022-11-20T05:47:02;93850.13;;;17.24;63.54
23176;BME280;19910;42.652;23.332;2022-11-20T05:49:30;93856.03;;;17.33;63.13
23176;BME280;19910;42.652;23.332;2022-11-20T05:51:57;93854.03;;;17.23;63.73
23176;BME280;19910;42.652;23.332;2022-11-20T05:54:24;93854.44;;;17.14;63.60
23176;BME280;19910;42.652;23.332;2022-11-20T05:56:51;93868.94;;;17.22;62.74
23176;BME280;19910;42.652;23.332;2022-11-20T05:59:17;93883.00;;;17.38;61.23
23176;BME280;19910;42.652;23.332;2022-11-20T06:01:44;93882.22;;;17.37;61.35
23176;BME280;19910;42.652;23.332;2022-11-20T06:04:11;93890.09;;;17.46;61.22
23176;BME280;19910;42.652;23.332;2022-11-20T06:06:39;93876.78;;;17.48;61.67
23176;BME280;19910;42.652;23.332;2022-11-20T06:09:06;93894.78;;;17.56;61.84
23176;BME280;19910;42.652;23.332;2022-11-20T06:11:32;93885.38;;;17.50;61.72
23176;BME280;19910;42.652;23.332;2022-11-20T06:13:59;93883.03;;;17.52;61.44
23176;BME280;19910;42.652;23.332;2022-11-20T06:16:26;93887.75;;;17.55;61.38
23176;BME280;19910;42.652;23.332;2022-11-20T06:18:53;93876.00;;;17.51;61.57
23176;BME280;19910;42.652;23.332;2022-11-20T06:21:21;93887.75;;;17.59;61.66
23176;BME280;19910;42.652;23.332;2022-11-20T06:23:51;93884.63;;;17.60;61.56
23176;BME280;19910;42.652;23.332;2022-11-20T06:26:20;93890.13;;;17.67;61.10
23176;BME280;19910;42.652;23.332;2022-11-20T06:28:48;93912.81;;;17.64;61.44
23176;BME280;19910;42.652;23.332;2022-11-20T06:31:17;93908.91;;;17.69;61.39
23176;BME280;19910;42.652;23.332;2022-11-20T06:33:44;93916.72;;;17.63;61.91
23176;BME280;19910;42.652;23.332;2022-11-20T06:36:12;93919.84;;;17.62;61.74
23176;BME280;19910;42.652;23.332;2022-11-20T06:38:40;93914.38;;;17.65;61.61
23176;BME280;19910;42.652;23.332;2022-11-20T06:41:11;93901.09;;;17.74;60.65
23176;BME280;19910;42.652;23.332;2022-11-20T06:43:38;93922.22;;;17.77;60.07
23176;BME280;19910;42.652;23.332;2022-11-20T06:46:05;93928.50;;;17.82;60.03
23176;BME280;19910;42.652;23.332;2022-11-20T06:48:32;93934.00;;;18.03;58.18
23176;BME280;19910;42.652;23.332;2022-11-20T06:50:59;93923.03;;;18.14;58.11
23176;BME280;19910;42.652;23.332;2022-11-20T06:53:26;93935.53;;;18.32;57.56
23176;BME280;19910;42.652;23.332;2022-11-20T06:55:55;93909.66;;;18.37;57.32
23176;BME280;19910;42.652;23.332;2022-11-20T06:58:26;93923.34;;;18.51;57.02
23176;BME280;19910;42.652;23.332;2022-11-20T07:00:53;93932.34;;;18.73;56.75
23176;BME280;19910;42.652;23.332;2022-11-20T07:03:20;93942.91;;;18.85;56.48
23176;BME280;19910;42.652;23.332;2022-11-20T07:05:47;93940.97;;;18.82;56.53
23176;BME280;19910;42.652;23.332;2022-11-20T07:08:14;93941.75;;;18.75;56.92
23176;BME280;19910;42.652;23.332;2022-11-20T07:10:41;93936.69;;;18.70;57.24
23176;BME280;19910;42.652;23.332;2022-11-20T07:13:07;93933.94;;;18.60;57.62
23176;BME280;19910;42.652;23.332;2022-11-20T07:15:35;93941.41;;;18.41;58.66
23176;BME280;19910;42.652;23.332;2022-11-20T07:18:02;93930.81;;;18.36;58.88
23176;BME280;19910;42.652;23.332;2022-11-20T07:20:29;93943.38;;;18.27;59.09
23176;BME280;19910;42.652;23.332;2022-11-20T07:22:57;93941.03;;;18.25;58.57
23176;BME280;19910;42.652;23.332;2022-11-20T07:25:24;93940.25;;;18.25;58.40
23176;BME280;19910;42.652;23.332;2022-11-20T07:27:51;93954.72;;;18.25;58.49
23176;BME280;19910;42.652;23.332;2022-11-20T07:30:18;93946.50;;;18.25;58.81
23176;BME280;19910;42.652;23.332;2022-11-20T07:32:50;93949.63;;;18.20;58.89
23176;BME280;19910;42.652;23.332;2022-11-20T07:35:17;93940.25;;;18.14;59.02
23176;BME280;19910;42.652;23.332;2022-11-20T07:37:44;93948.84;;;18.09;59.61
23176;BME280;19910;42.652;23.332;2022-11-20T07:40:12;93941.81;;;18.08;59.44
23176;BME280;19910;42.652;23.332;2022-11-20T07:42:47;93940.66;;;18.02;59.75
23176;BME280;19910;42.652;23.332;2022-11-20T07:45:13;93946.53;;;18.04;59.98
23176;BME280;19910;42.652;23.332;2022-11-20T07:47:40;93945.72;;;18.00;60.11
23176;BME280;19910;42.652;23.332;2022-11-20T07:50:09;93936.72;;;17.96;60.07
23176;BME280;19910;42.652;23.332;2022-11-20T07:52:36;93942.19;;;17.96;60.10
23176;BME280;19910;42.652;23.332;2022-11-20T07:55:03;93946.50;;;17.97;59.94
23176;BME280;19910;42.652;23.332;2022-11-20T07:57:30;93944.94;;;17.82;60.50
23176;BME280;19910;42.652;23.332;2022-11-20T07:59:57;93958.97;;;17.62;61.81
23176;BME280;19910;42.652;23.332;2022-11-20T08:02:24;93979.28;;;17.47;62.73
23176;BME280;19910;42.652;23.332;2022-11-20T08:04:52;93965.97;;;17.46;63.13
23176;BME280;19910;42.652;23.332;2022-11-20T08:07:20;93954.19;;;17.38;63.51
23176;BME280;19910;42.652;23.332;2022-11-20T08:09:47;93957.34;;;17.33;64.89
23176;BME280;19910;42.652;23.332;2022-11-20T08:12:17;93938.94;;;17.30;64.09
23176;BME280;19910;42.652;23.332;2022-11-20T08:15:02;93947.94;;;17.41;64.27
23176;BME280;19910;42.652;23.332;2022-11-20T08:17:29;93956.19;;;17.52;63.88
23176;BME280;19910;42.652;23.332;2022-11-20T08:19:56;93950.72;;;17.52;64.12
23176;BME280;19910;42.652;23.332;2022-11-20T08:22:24;93961.31;;;17.60;64.16
23176;BME280;19910;42.652;23.332;2022-11-20T08:24:51;93952.75;;;17.76;64.07
23176;BME280;19910;42.652;23.332;2022-11-20T08:27:18;93970.00;;;17.84;64.11
23176;BME280;19910;42.652;23.332;2022-11-20T08:29:44;93980.56;;;17.96;62.70
23176;BME280;19910;42.652;23.332;2022-11-20T08:32:11;93977.84;;;18.03;62.57
23176;BME280;19910;42.652;23.332;2022-11-20T08:34:38;93970.00;;;18.05;62.74
23176;BME280;19910;42.652;23.332;2022-11-20T08:37:05;93977.06;;;18.09;62.47
23176;BME280;19910;42.652;23.332;2022-11-20T08:39:33;93963.75;;;18.22;61.52
23176;BME280;19910;42.652;23.332;2022-11-20T08:41:59;93977.47;;;18.15;61.52
23176;BME280;19910;42.652;23.332;2022-11-20T08:44:26;93995.09;;;18.28;61.75
23176;BME280;19910;42.652;23.332;2022-11-20T08:46:53;93997.41;;;18.19;62.38
23176;BME280;19910;42.652;23.332;2022-11-20T08:49:20;94000.94;;;18.09;64.13
23176;BME280;19910;42.652;23.332;2022-11-20T08:51:50;94017.75;;;17.97;65.52
23176;BME280;19910;42.652;23.332;2022-11-20T08:54:20;94027.13;;;17.74;67.80
23176;BME280;19910;42.652;23.332;2022-11-20T08:56:48;94009.88;;;17.70;66.76
23176;BME280;19910;42.652;23.332;2022-11-20T08:59:15;94008.31;;;17.69;69.74
23176;BME280;19910;42.652;23.332;2022-11-20T09:01:42;93994.97;;;17.64;68.47
23176;BME280;19910;42.652;23.332;2022-11-20T09:04:08;94000.03;;;17.55;68.73
23176;BME280;19910;42.652;23.332;2022-11-20T09:06:37;94015.31;;;17.63;69.86
23176;BME280;19910;42.652;23.332;2022-11-20T09:09:03;94005.88;;;17.54;70.12
23176;BME280;19910;42.652;23.332;2022-11-20T09:11:31;93994.78;;;17.15;71.43
23176;BME280;19910;42.652;23.332;2022-11-20T09:13:59;94017.13;;;16.62;77.12
23176;BME280;19910;42.652;23.332;2022-11-20T09:16:28;94012.97;;;16.27;79.90
23176;BME280;19910;42.652;23.332;2022-11-20T09:18:54;94013.31;;;15.78;81.06
23176;BME280;19910;42.652;23.332;2022-11-20T09:21:21;94014.34;;;15.63;74.56
23176;BME280;19910;42.652;23.332;2022-11-20T09:23:49;94030.88;;;15.44;76.52
23176;BME280;19910;42.652;23.332;2022-11-20T09:26:16;94026.41;;;15.28;79.55
23176;BME280;19910;42.652;23.332;2022-11-20T09:28:43;94004.81;;;15.16;80.51
23176;BME280;19910;42.652;23.332;2022-11-20T09:31:17;94009.06;;;15.14;82.16
23176;BME280;19910;42.652;23.332;2022-11-20T09:33:46;93999.56;;;15.34;80.60
23176;BME280;19910;42.652;23.332;2022-11-20T09:36:13;94003.13;;;15.38;81.03
23176;BME280;19910;42.652;23.332;2022-11-20T09:38:39;93988.72;;;15.41;81.95
23176;BME280;19910;42.652;23.332;2022-11-20T09:41:12;93981.34;;;15.45;84.60
23176;BME280;19910;42.652;23.332;2022-11-20T09:43:49;93969.94;;;15.70;87.10
23176;BME280;19910;42.652;23.332;2022-11-20T09:46:28;93975.97;;;15.89;88.73
23176;BME280;19910;42.652;23.332;2022-11-20T09:49:17;93969.66;;;15.82;87.62
23176;BME280;19910;42.652;23.332;2022-11-20T09:51:53;93970.94;;;15.95;90.54
23176;BME280;19910;42.652;23.332;2022-11-20T09:54:27;93948.66;;;15.89;85.93
23176;BME280;19910;42.652;23.332;2022-11-20T09:56:59;93950.22;;;15.90;87.27
23176;BME280;19910;42.652;23.332;2022-11-20T09:59:33;93959.72;;;16.07;86.63
23176;BME280;19910;42.652;23.332;2022-11-20T10:02:15;93965.47;;;16.46;87.06
23176;BME280;19910;42.652;23.332;2022-11-20T10:04:46;93971.59;;;16.87;87.99
23176;BME280;19910;42.652;23.332;2022-11-20T10:07:17;93953.34;;;17.13;82.86
23176;BME280;19910;42.652;23.332;2022-11-20T10:09:51;93961.59;;;17.20;80.16
23176;BME280;19910;42.652;23.332;2022-11-20T10:12:23;93957.00;;;17.49;80.53
23176;BME280;19910;42.652;23.332;2022-11-20T10:14:59;93941.03;;;17.75;79.02
23176;BME280;19910;42.652;23.332;2022-11-20T10:17:53;93950.81;;;17.73;81.96
23176;BME280;19910;42.652;23.332;2022-11-20T10:20:28;93949.50;;;17.38;77.89
23176;BME280;19910;42.652;23.332;2022-11-20T10:23:15;93946.13;;;16.73;77.98
23176;BME280;19910;42.652;23.332;2022-11-20T10:25:51;93943.63;;;16.50;78.91
23176;BME280;19910;42.652;23.332;2022-11-20T10:28:34;93931.66;;;16.10;81.94
23176;BME280;19910;42.652;23.332;2022-11-20T10:31:10;93940.88;;;15.91;81.91
23176;BME280;19910;42.652;23.332;2022-11-20T10:33:41;93944.69;;;15.80;83.59
23176;BME280;19910;42.652;23.332;2022-11-20T10:36:14;93927.94;;;15.85;83.38
23176;BME280;19910;42.652;23.332;2022-11-20T10:38:45;93949.50;;;15.97;83.73
23176;BME280;19910;42.652;23.332;2022-11-20T10:41:20;93952.63;;;15.99;83.12
23176;BME280;19910;42.652;23.332;2022-11-20T10:44:02;93960.03;;;15.95;83.57
23176;BME280;19910;42.652;23.332;2022-11-20T10:46:38;93959.66;;;15.96;81.56
23176;BME280;19910;42.652;23.332;2022-11-20T10:49:13;93943.97;;;15.90;81.82
23176;BME280;19910;42.652;23.332;2022-11-20T10:51:51;93953.56;;;15.73;84.58
23176;BME280;19910;42.652;23.332;2022-11-20T10:54:24;93966.16;;;15.44;86.33
23176;BME280;19910;42.652;23.332;2022-11-20T10:57:00;93971.47;;;15.34;87.32
23176;BME280;19910;42.652;23.332;2022-11-20T10:59:51;93977.72;;;15.34;87.51
23176;BME280;19910;42.652;23.332;2022-11-20T11:02:23;93975.41;;;15.36;87.82
23176;BME280;19910;42.652;23.332;2022-11-20T11:04:52;93995.75;;;15.42;89.17
23176;BME280;19910;42.652;23.332;2022-11-20T11:07:23;93992.53;;;15.33;90.55
23176;BME280;19910;42.652;23.332;2022-11-20T11:09:53;94008.00;;;15.22;92.26
23176;BME280;19910;42.652;23.332;2022-11-20T11:12:20;94035.94;;;15.12;93.89
23176;BME280;19910;42.652;23.332;2022-11-20T11:14:49;94052.00;;;14.90;96.98
23176;BME280;19910;42.652;23.332;2022-11-20T11:17:25;94039.09;;;14.57;84.68
23176;BME280;19910;42.652;23.332;2022-11-20T11:19:59;94034.81;;;14.34;82.86
23176;BME280;19910;42.652;23.332;2022-11-20T11:22:28;94045.41;;;14.16;84.14
23176;BME280;19910;42.652;23.332;2022-11-20T11:24:55;94040.91;;;13.81;85.34
23176;BME280;19910;42.652;23.332;2022-11-20T11:27:22;94004.09;;;13.65;84.32
23176;BME280;19910;42.652;23.332;2022-11-20T11:29:49;93987.44;;;13.47;82.62
23176;BME280;19910;42.652;23.332;2022-11-20T11:32:18;94028.41;;;13.35;84.52
23176;BME280;19910;42.652;23.332;2022-11-20T11:35:00;94016.59;;;13.27;85.93
23176;BME280;19910;42.652;23.332;2022-11-20T11:37:33;93991.53;;;13.37;81.48
23176;BME280;19910;42.652;23.332;2022-11-20T11:40:01;93991.09;;;13.35;81.57
23176;BME280;19910;42.652;23.332;2022-11-20T11:42:28;93984.25;;;13.22;83.42
23176;BME280;19910;42.652;23.332;2022-11-20T11:44:57;93973.94;;;13.31;80.98
23176;BME280;19910;42.652;23.332;2022-11-20T11:47:35;93978.78;;;13.41;81.21
23176;BME280;19910;42.652;23.332;2022-11-20T11:50:16;93974.06;;;13.38;82.90
23176;BME280;19910;42.652;23.332;2022-11-20T11:52:46;93969.03;;;13.40;82.30
23176;BME280;19910;42.652;23.332;2022-11-20T11:55:18;93972.59;;;13.44;83.20
23176;BME280;19910;42.652;23.332;2022-11-20T11:57:51;93986.66;;;13.46;82.88
23176;BME280;19910;42.652;23.332;2022-11-20T12:00:20;93963.97;;;13.39;82.50
23176;BME280;19910;42.652;23.332;2022-11-20T12:02:56;93959.69;;;13.61;80.71
23176;BME280;19910;42.652;23.332;2022-11-20T12:05:29;93951.34;;;13.73;79.89
23176;BME280;19910;42.652;23.332;2022-11-20T12:08:03;93945.03;;;13.69;80.43
23176;BME280;19910;42.652;23.332;2022-11-20T12:10:40;93956.78;;;13.73;80.21
23176;BME280;19910;42.652;23.332;2022-11-20T12:13:20;93955.94;;;13.69;78.73
23176;BME280;19910;42.652;23.332;2022-11-20T12:15:49;93968.56;;;13.58;79.90
23176;BME280;19910;42.652;23.332;2022-11-20T12:18:17;93968.78;;;13.26;83.55
23176;BME280;19910;42.652;23.332;2022-11-20T12:20:54;93966.97;;;13.34;82.30
23176;BME280;19910;42.652;23.332;2022-11-20T12:23:28;93968.41;;;13.28;82.12
23176;BME280;19910;42.652;23.332;2022-11-20T12:26:05;93972.22;;;13.23;82.24
23176;BME280;19910;42.652;23.332;2022-11-20T12:28:52;93975.50;;;12.94;85.71
23176;BME280;19910;42.652;23.332;2022-11-20T12:31:44;93972.47;;;12.99;83.65
23176;BME280;19910;42.652;23.332;2022-11-20T12:34:52;93982.66;;;13.02;83.55
23176;BME280;19910;42.652;23.332;2022-11-20T12:37:39;93942.84;;;13.13;83.08
23176;BME280;19910;42.652;23.332;2022-11-20T12:40:24;93926.63;;;13.16;81.83
23176;BME280;19910;42.652;23.332;2022-11-20T12:43:01;93887.13;;;13.03;83.27
23176;BME280;19910;42.652;23.332;2022-11-20T12:45:57;93866.78;;;12.94;84.40
23176;BME280;19910;42.652;23.332;2022-11-20T12:51:38;93880.28;;;13.55;79.39
23176;BME280;19910;42.652;23.332;2022-11-20T12:54:37;93890.88;;;13.86;76.16
23176;BME280;19910;42.652;23.332;2022-11-20T12:57:15;93902.00;;;14.01;76.54
23176;BME280;19910;42.652;23.332;2022-11-20T12:59:59;93902.88;;;13.82;79.18
23176;BME280;19910;42.652;23.332;2022-11-20T13:02:35;93915.84;;;13.43;83.83
23176;BME280;19910;42.652;23.332;2022-11-20T13:05:18;93919.69;;;13.19;84.71
23176;BME280;19910;42.652;23.332;2022-11-20T13:07:47;93915.91;;;13.04;86.35